Time;durP1;ratioP1;P1;durP2;ratioP2;P2;SDS_P1;SDS_P2;PMS_P1;PMS_P2;Temp;Humidity;BMP_temperature;BMP_pressure;BME280_temperature;BME280_humidity;BME280_pressure;Samples;Min_cycle;Max_cycle;Signal;HPM_P1;HPM_P2
2022/08/30 00:02:59;;;;;;;3.40;1.20;;;;;;;14.55;85.92;101464.72;108465;1270;61129;-86
2022/08/30 00:05:28;;;;;;;3.40;1.40;;;;;;;14.52;86.04;101466.52;108536;1268;75009;-85
2022/08/30 00:07:56;;;;;;;1.80;1.10;;;;;;;14.49;85.94;101464.66;108595;1268;72300;-85
2022/08/30 00:10:24;;;;;;;2.40;1.20;;;;;;;14.46;85.95;101465.16;108326;1268;73232;-86
2022/08/30 00:12:51;;;;;;;2.50;1.30;;;;;;;14.44;86.02;101459.05;108274;1270;64343;-85
2022/08/30 00:15:19;;;;;;;3.50;1.30;;;;;;;14.41;86.23;101459.53;108429;1268;61620;-85
2022/08/30 00:17:47;;;;;;;2.40;1.10;;;;;;;14.38;86.48;101456.05;108468;1268;75029;-85
2022/08/30 00:20:17;;;;;;;2.40;1.30;;;;;;;14.36;86.59;101457.88;108412;1270;71488;-85
2022/08/30 00:22:44;;;;;;;4.50;1.30;;;;;;;14.33;86.57;101461.55;108521;1268;73433;-85
2022/08/30 00:25:12;;;;;;;3.10;1.20;;;;;;;14.31;87.07;101466.10;108445;1269;63271;-85
2022/08/30 00:27:39;;;;;;;2.20;1.20;;;;;;;14.29;86.91;101464.60;108579;1269;59842;-85
2022/08/30 00:30:07;;;;;;;2.80;1.20;;;;;;;14.27;87.21;101467.73;108342;1271;76507;-85
2022/08/30 00:32:34;;;;;;;2.50;1.10;;;;;;;14.26;87.30;101467.38;108534;1269;70574;-85
2022/08/30 00:35:03;;;;;;;1.90;1.10;;;;;;;14.25;87.09;101464.12;108433;1270;73001;-85
2022/08/30 00:37:30;;;;;;;2.80;1.30;;;;;;;14.22;87.39;101461.03;108446;1270;62207;-85
2022/08/30 00:39:57;;;;;;;2.60;1.30;;;;;;;14.21;87.55;101459.99;108433;1270;62286;-85
2022/08/30 00:42:25;;;;;;;4.80;1.20;;;;;;;14.18;87.68;101453.71;108461;1270;74794;-85
2022/08/30 00:44:52;;;;;;;3.70;1.40;;;;;;;14.16;87.65;101457.45;108526;1268;71431;-85
2022/08/30 00:47:19;;;;;;;3.00;1.30;;;;;;;14.14;87.95;101456.88;108257;1270;72099;-85
2022/08/30 00:49:50;;;;;;;3.10;1.20;;;;;;;14.11;87.94;101461.64;108542;1268;63237;-85
2022/08/30 00:52:19;;;;;;;3.00;1.20;;;;;;;14.09;88.19;101462.30;108530;1269;61513;-85
2022/08/30 00:54:48;;;;;;;2.60;1.40;;;;;;;14.06;87.83;101460.20;108538;1269;76009;-85
2022/08/30 00:57:15;;;;;;;3.10;1.40;;;;;;;14.04;87.86;101457.83;108584;1271;73280;-85
2022/08/30 00:59:45;;;;;;;2.50;1.20;;;;;;;14.02;87.73;101459.71;108532;1268;74057;-85
2022/08/30 01:02:14;;;;;;;2.10;1.20;;;;;;;13.98;87.66;101457.87;108517;1268;63607;-85
2022/08/30 01:04:43;;;;;;;2.20;1.30;;;;;;;13.94;88.00;101457.98;108524;1269;60431;-85
2022/08/30 01:07:10;;;;;;;2.70;1.40;;;;;;;13.91;88.15;101454.35;108562;1268;75345;-85
2022/08/30 01:09:37;;;;;;;3.40;1.30;;;;;;;13.89;88.29;101456.38;108529;1268;71715;-86
2022/08/30 01:12:04;;;;;;;4.10;1.60;;;;;;;13.86;88.53;101454.88;108473;1270;72999;-85
2022/08/30 01:14:32;;;;;;;2.30;1.40;;;;;;;13.83;88.84;101457.38;108508;1268;61703;-85
2022/08/30 01:17:01;;;;;;;3.10;1.70;;;;;;;13.81;89.11;101460.80;108535;1269;60187;-86
2022/08/30 01:20:04;;;;;;;2.10;1.60;;;;;;;13.79;89.36;101459.98;108337;1270;76288;-86
2022/08/30 01:22:54;;;;;;;3.70;1.60;;;;;;;13.77;89.32;101459.61;108420;1269;70791;-85
2022/08/30 01:25:28;;;;;;;2.60;1.70;;;;;;;13.74;89.79;101460.58;108538;1269;74203;-85
2022/08/30 01:28:00;;;;;;;2.90;1.70;;;;;;;13.72;90.01;101459.82;108402;1270;62599;-85
2022/08/30 01:30:29;;;;;;;3.80;1.70;;;;;;;13.70;90.17;101460.16;108575;1270;60574;-85
2022/08/30 01:32:58;;;;;;;3.40;1.90;;;;;;;13.69;90.41;101459.91;108419;1270;75589;-86
2022/08/30 01:35:26;;;;;;;4.60;2.10;;;;;;;13.69;90.57;101455.14;108563;1268;73086;-85
2022/08/30 01:37:54;;;;;;;3.00;1.80;;;;;;;13.69;90.77;101450.89;108391;1271;72770;-85
2022/08/30 01:40:21;;;;;;;4.00;1.80;;;;;;;13.70;90.97;101455.07;108437;1270;63040;-85
2022/08/30 01:42:49;;;;;;;3.40;1.90;;;;;;;13.69;90.86;101455.34;108577;1270;60612;-85
2022/08/30 01:45:15;;;;;;;2.70;1.80;;;;;;;13.70;91.01;101456.23;108587;1269;76483;-85
2022/08/30 01:47:42;;;;;;;3.20;1.90;;;;;;;13.71;91.17;101459.33;108447;1269;71674;-86
2022/08/30 01:50:10;;;;;;;3.10;1.90;;;;;;;13.71;91.10;101461.52;108466;1270;72877;-85
2022/08/30 01:52:38;;;;;;;3.60;2.00;;;;;;;13.70;91.36;101460.57;108516;1269;63202;-85
2022/08/30 01:55:05;;;;;;;3.60;2.10;;;;;;;13.66;91.26;101451.20;108422;1270;60393;-85
2022/08/30 01:57:32;;;;;;;3.10;2.00;;;;;;;13.64;91.22;101453.21;108574;1269;75098;-85
2022/08/30 02:00:00;;;;;;;3.40;2.00;;;;;;;13.62;91.35;101449.89;108569;1270;72331;-85
2022/08/30 02:02:28;;;;;;;4.20;2.20;;;;;;;13.60;91.31;101451.69;108446;1270;73924;-85
2022/08/30 02:04:56;;;;;;;4.70;2.60;;;;;;;13.58;91.44;101451.61;108519;1268;61910;-85
2022/08/30 02:07:24;;;;;;;3.10;2.10;;;;;;;13.56;91.59;101447.11;108520;1270;60019;-85
2022/08/30 02:09:52;;;;;;;5.20;2.50;;;;;;;13.53;91.77;101448.58;108548;1268;75791;-85
2022/08/30 02:12:19;;;;;;;4.90;2.30;;;;;;;13.52;91.73;101447.75;108440;1270;71465;-85
2022/08/30 02:14:46;;;;;;;2.90;2.30;;;;;;;13.49;91.82;101449.77;108351;1270;72142;-85
2022/08/30 02:17:15;;;;;;;3.40;2.60;;;;;;;13.45;91.91;101454.29;108562;1268;61998;-87
2022/08/30 02:19:42;;;;;;;4.40;2.40;;;;;;;13.40;91.99;101455.58;108357;1271;61347;-85
2022/08/30 02:22:10;;;;;;;4.20;2.20;;;;;;;13.38;92.29;101458.30;108472;1268;76126;-85
2022/08/30 02:24:37;;;;;;;3.60;2.50;;;;;;;13.37;92.33;101457.77;108512;1268;72185;-85
2022/08/30 02:27:04;;;;;;;4.40;2.50;;;;;;;13.36;92.16;101456.06;108492;1270;74025;-85
2022/08/30 02:29:31;;;;;;;3.80;2.30;;;;;;;13.34;92.13;101451.52;108420;1270;62154;-85
2022/08/30 02:31:58;;;;;;;4.50;2.50;;;;;;;13.31;92.21;101450.63;108542;1270;60126;-85
2022/08/30 02:34:25;;;;;;;4.20;2.50;;;;;;;13.28;92.49;101453.55;108435;1270;76534;-85
2022/08/30 02:36:52;;;;;;;4.50;2.70;;;;;;;13.27;92.65;101456.30;108496;1270;72671;-85
2022/08/30 02:39:19;;;;;;;4.80;2.70;;;;;;;13.26;92.83;101457.12;108495;1268;73956;-85
2022/08/30 02:41:47;;;;;;;4.20;3.20;;;;;;;13.24;92.83;101457.70;108556;1270;63494;-85
2022/08/30 02:44:14;;;;;;;4.00;2.60;;;;;;;13.24;93.26;101454.94;108528;1268;60308;-85
2022/08/30 02:46:41;;;;;;;5.40;3.40;;;;;;;13.26;93.55;101457.92;108571;1270;74934;-85
2022/08/30 02:49:08;;;;;;;8.00;3.50;;;;;;;13.27;93.98;101456.72;108427;1270;71300;-85
2022/08/30 02:51:55;;;;;;;8.30;4.70;;;;;;;13.28;94.24;101455.73;108487;1270;74374;-85
2022/08/30 02:54:23;;;;;;;8.80;5.10;;;;;;;13.29;94.52;101453.99;108334;1270;61968;-85
2022/08/30 02:56:50;;;;;;;9.60;5.10;;;;;;;13.31;94.68;101457.11;108397;1270;63158;-85
2022/08/30 02:59:17;;;;;;;9.50;5.90;;;;;;;13.34;94.60;101452.35;108452;1270;73889;-86
2022/08/30 03:01:44;;;;;;;8.40;5.50;;;;;;;13.36;94.54;101452.09;108456;1270;72527;-85
2022/08/30 03:04:12;;;;;;;8.00;5.60;;;;;;;13.37;94.67;101450.56;108325;1270;73836;-86
2022/08/30 03:06:39;;;;;;;14.20;6.10;;;;;;;13.38;94.54;101451.19;108357;1270;62578;-85
2022/08/30 03:09:06;;;;;;;20.50;5.90;;;;;;;13.39;94.61;101454.80;108478;1270;60257;-85
2022/08/30 03:11:33;;;;;;;27.80;5.10;;;;;;;13.38;94.58;101450.29;108470;1271;74719;-85
2022/08/30 03:14:00;;;;;;;9.50;5.50;;;;;;;13.35;94.44;101449.38;108522;1268;71380;-85
2022/08/30 03:16:27;;;;;;;23.90;6.10;;;;;;;13.34;94.54;101455.23;108416;1271;71820;-85
2022/08/30 03:18:54;;;;;;;18.90;5.40;;;;;;;13.31;94.53;101460.52;108543;1268;64074;-85
2022/08/30 03:21:21;;;;;;;45.10;6.10;;;;;;;13.30;94.84;101462.09;108478;1268;61336;-85
2022/08/30 03:23:48;;;;;;;16.60;5.40;;;;;;;13.26;94.60;101465.64;108442;1270;76005;-85
2022/08/30 03:26:15;;;;;;;19.20;5.00;;;;;;;13.25;94.90;101469.65;108471;1271;71602;-85
2022/08/30 03:28:42;;;;;;;24.80;5.80;;;;;;;13.25;95.07;101470.95;108534;1269;74159;-85
2022/08/30 03:31:10;;;;;;;25.80;5.40;;;;;;;13.25;95.07;101472.17;108356;1268;61980;-85
2022/08/30 03:33:41;;;;;;;14.50;5.60;;;;;;;13.25;95.17;101471.80;108413;1270;60643;-85
2022/08/30 03:36:10;;;;;;;32.20;5.80;;;;;;;13.26;95.12;101469.98;108581;1269;77701;-85
2022/08/30 03:38:38;;;;;;;12.60;5.70;;;;;;;13.26;95.37;101466.25;108533;1270;72939;-85
2022/08/30 03:41:05;;;;;;;8.50;5.50;;;;;;;13.28;95.58;101463.59;108468;1269;73245;-85
2022/08/30 03:43:34;;;;;;;7.20;6.20;;;;;;;13.30;95.59;101462.09;108472;1270;62219;-85
2022/08/30 03:46:05;;;;;;;13.70;6.50;;;;;;;13.33;95.81;101468.60;108581;1269;61658;-85
2022/08/30 03:48:32;;;;;;;14.20;6.40;;;;;;;13.36;95.65;101471.19;108521;1270;74618;-85
2022/08/30 03:50:59;;;;;;;6.90;6.00;;;;;;;13.36;95.49;101468.83;108454;1271;71444;-85
2022/08/30 03:53:26;;;;;;;7.40;6.30;;;;;;;13.36;95.43;101467.30;108381;1270;74106;-85
2022/08/30 03:55:53;;;;;;;7.80;6.20;;;;;;;13.38;95.79;101467.58;108532;1268;62102;-85
2022/08/30 03:58:21;;;;;;;7.70;6.60;;;;;;;13.41;95.78;101460.98;108610;1268;60414;-85
2022/08/30 04:00:49;;;;;;;7.40;6.60;;;;;;;13.45;95.98;101458.35;108494;1270;75028;-85
2022/08/30 04:03:17;;;;;;;7.80;6.50;;;;;;;13.50;96.15;101456.63;108510;1270;70567;-85
2022/08/30 04:05:44;;;;;;;8.10;6.60;;;;;;;13.53;95.89;101457.14;108445;1269;75448;-86
2022/08/30 04:08:11;;;;;;;6.60;5.90;;;;;;;13.56;96.02;101458.55;108477;1268;63678;-85
2022/08/30 04:10:40;;;;;;;6.90;6.20;;;;;;;13.59;95.61;101457.58;108442;1270;60719;-84
2022/08/30 04:13:07;;;;;;;7.80;6.80;;;;;;;13.63;95.63;101459.41;108418;1270;75963;-85
2022/08/30 04:15:34;;;;;;;7.20;6.50;;;;;;;13.65;95.75;101458.66;108442;1270;71167;-85
2022/08/30 04:18:01;;;;;;;7.10;6.30;;;;;;;13.65;95.52;101458.59;108482;1270;72779;-85
2022/08/30 04:20:28;;;;;;;6.90;6.20;;;;;;;13.67;95.51;101461.75;108438;1268;63574;-85
2022/08/30 04:22:55;;;;;;;7.20;6.40;;;;;;;13.71;95.70;101462.73;108477;1270;59628;-85
2022/08/30 04:25:22;;;;;;;7.00;6.30;;;;;;;13.76;95.50;101468.92;108367;1270;75178;-85
2022/08/30 04:27:50;;;;;;;7.20;6.40;;;;;;;13.75;95.21;101468.64;108485;1271;73233;-85
2022/08/30 04:30:17;;;;;;;6.80;6.10;;;;;;;13.75;95.11;101472.60;108312;1270;74182;-85
2022/08/30 04:32:45;;;;;;;7.70;6.90;;;;;;;13.76;95.15;101468.40;108504;1268;62228;-85
2022/08/30 04:35:13;;;;;;;7.50;6.70;;;;;;;13.79;95.47;101466.05;108450;1271;61315;-85
2022/08/30 04:37:40;;;;;;;7.70;6.90;;;;;;;13.84;95.70;101467.20;108436;1269;77954;-86
2022/08/30 04:40:08;;;;;;;8.30;6.60;;;;;;;13.90;95.29;101471.77;108417;1271;72482;-86
2022/08/30 04:42:35;;;;;;;8.00;7.00;;;;;;;13.92;95.28;101473.86;108300;1271;71802;-85
2022/08/30 04:45:08;;;;;;;7.90;7.10;;;;;;;13.95;95.02;101473.86;108343;1270;62120;-85
2022/08/30 04:47:36;;;;;;;8.70;7.60;;;;;;;13.99;95.28;101477.64;108590;1269;61424;-84
2022/08/30 04:50:03;;;;;;;8.70;7.80;;;;;;;14.04;95.29;101475.64;108459;1269;76581;-85
2022/08/30 04:52:30;;;;;;;8.60;7.70;;;;;;;14.09;95.01;101483.77;108483;1271;72672;-85
2022/08/30 04:54:58;;;;;;;9.00;7.70;;;;;;;14.14;94.85;101487.33;108500;1270;72894;-84
2022/08/30 04:57:25;;;;;;;8.90;7.90;;;;;;;14.16;94.75;101486.50;108587;1271;63806;-85
2022/08/30 04:59:53;;;;;;;9.80;8.00;;;;;;;14.21;94.50;101491.98;108362;1271;61073;-84
2022/08/30 05:02:20;;;;;;;9.10;8.20;;;;;;;14.25;94.32;101499.98;108391;1270;75946;-84
2022/08/30 05:07:34;;;;;;;8.70;7.80;;;;;;;14.34;94.19;101504.67;108449;1271;74122;-84
2022/08/30 05:10:02;;;;;;;10.30;8.50;;;;;;;14.39;94.07;101506.61;108424;1271;61988;-85
2022/08/30 05:12:36;;;;;;;9.00;7.90;;;;;;;14.42;93.91;101505.55;108396;1271;61666;-85
2022/08/30 05:15:04;;;;;;;8.50;7.50;;;;;;;14.41;93.52;101507.59;108620;1268;74814;-85
2022/08/30 05:20:00;;;;;;;11.10;9.30;;;;;;;14.42;93.67;101508.98;108481;1270;72723;-85
2022/08/30 05:22:27;;;;;;;9.80;8.80;;;;;;;14.45;93.89;101512.86;108385;1271;62305;-84
2022/08/30 05:24:54;;;;;;;9.20;8.00;;;;;;;14.46;93.90;101509.84;108506;1269;60278;-85
2022/08/30 05:27:21;;;;;;;11.90;9.50;;;;;;;14.49;93.64;101518.92;108454;1270;75970;-85
2022/08/30 05:29:48;;;;;;;10.20;8.70;;;;;;;14.52;93.86;101520.17;108518;1270;71546;-85
2022/08/30 05:32:15;;;;;;;10.30;9.00;;;;;;;14.58;93.76;101520.13;108434;1271;74398;-85
2022/08/30 05:34:41;;;;;;;11.80;9.60;;;;;;;14.62;93.76;101520.61;108513;1269;63304;-85
2022/08/30 05:37:08;;;;;;;12.00;9.70;;;;;;;14.66;93.77;101519.56;108478;1271;60649;-85
2022/08/30 05:39:37;;;;;;;11.00;9.10;;;;;;;14.72;93.92;101517.80;108506;1271;76600;-85
2022/08/30 05:42:17;;;;;;;9.40;8.10;;;;;;;14.76;93.64;101516.87;108459;1270;69759;-85
2022/08/30 05:44:43;;;;;;;9.70;8.10;;;;;;;14.78;93.43;101521.59;108461;1271;73775;-85
2022/08/30 05:47:11;;;;;;;10.00;7.90;;;;;;;14.80;93.23;101520.66;108541;1271;63320;-85
2022/08/30 05:49:38;;;;;;;9.60;8.50;;;;;;;14.83;93.25;101520.27;108643;1270;63198;-83
2022/08/30 05:52:05;;;;;;;10.20;7.90;;;;;;;14.85;93.01;101523.13;108562;1270;74959;-84
2022/08/30 05:54:32;;;;;;;10.40;8.00;;;;;;;14.88;93.09;101520.39;108464;1271;71452;-84
2022/08/30 05:56:59;;;;;;;9.00;8.00;;;;;;;14.94;93.27;101522.44;108575;1271;74036;-84
2022/08/30 05:59:26;;;;;;;9.80;8.70;;;;;;;14.99;93.07;101523.42;108511;1271;63258;-83
2022/08/30 06:01:56;;;;;;;9.20;7.90;;;;;;;15.05;92.87;101519.83;108519;1271;60269;-83
2022/08/30 06:04:23;;;;;;;12.00;9.10;;;;;;;15.07;92.61;101522.41;108566;1270;75920;-83
2022/08/30 06:06:50;;;;;;;10.30;8.90;;;;;;;15.10;92.67;101523.98;108582;1271;70544;-83
2022/08/30 06:09:17;;;;;;;9.80;8.10;;;;;;;15.19;92.95;101520.81;108431;1269;74221;-84
2022/08/30 06:11:45;;;;;;;8.90;7.70;;;;;;;15.28;92.62;101516.86;108565;1271;63299;-84
2022/08/30 06:14:14;;;;;;;9.00;8.00;;;;;;;15.33;92.16;101518.36;108482;1271;60566;-84
2022/08/30 06:16:44;;;;;;;9.50;8.10;;;;;;;15.42;92.29;101518.14;108597;1270;74876;-83
2022/08/30 06:19:13;;;;;;;8.90;7.10;;;;;;;15.51;91.84;101518.73;108494;1271;71439;-84
2022/08/30 06:21:42;;;;;;;7.30;6.60;;;;;;;15.60;91.50;101521.20;108545;1271;73441;-83
2022/08/30 06:24:10;;;;;;;7.50;6.40;;;;;;;15.67;91.15;101518.90;108519;1271;62067;-83
2022/08/30 06:26:42;;;;;;;6.90;6.20;;;;;;;15.75;90.85;101521.29;108589;1270;61745;-83
2022/08/30 06:29:13;;;;;;;6.60;6.00;;;;;;;15.82;90.48;101518.71;108600;1271;75132;-83
2022/08/30 06:31:40;;;;;;;6.90;6.20;;;;;;;15.87;90.23;101521.83;108512;1271;72649;-83
2022/08/30 06:34:07;;;;;;;8.00;6.60;;;;;;;15.93;89.92;101521.46;108576;1270;72856;-83
2022/08/30 06:36:35;;;;;;;6.90;6.20;;;;;;;15.98;89.76;101522.64;108450;1271;63091;-84
2022/08/30 06:39:02;;;;;;;7.50;6.80;;;;;;;16.06;89.81;101519.55;108495;1271;60593;-84
2022/08/30 06:41:31;;;;;;;8.10;7.30;;;;;;;16.13;89.58;101523.61;107413;1271;1512956;-84
2022/08/30 06:44:02;;;;;;;8.20;6.90;;;;;;;16.20;89.28;101523.63;108508;1270;71135;-84
2022/08/30 06:46:34;;;;;;;7.40;6.70;;;;;;;16.26;88.81;101524.88;108546;1271;73098;-85
2022/08/30 06:49:03;;;;;;;7.40;6.50;;;;;;;16.30;88.91;101530.52;108618;1270;63483;-85
2022/08/30 06:51:33;;;;;;;7.90;7.10;;;;;;;16.38;88.54;101535.13;108511;1271;60372;-85
2022/08/30 06:54:00;;;;;;;7.90;7.10;;;;;;;16.37;88.02;101536.84;108459;1270;74691;-85
2022/08/30 06:56:27;;;;;;;8.30;7.40;;;;;;;16.42;88.31;101537.43;108586;1270;70670;-84
2022/08/30 06:58:57;;;;;;;8.30;7.30;;;;;;;16.44;87.88;101536.88;108548;1271;72166;-85
2022/08/30 07:01:26;;;;;;;9.00;6.90;;;;;;;16.46;87.74;101537.30;108583;1270;62363;-85
2022/08/30 07:03:54;;;;;;;8.60;7.60;;;;;;;16.48;87.66;101537.48;108583;1270;60984;-85
2022/08/30 07:06:22;;;;;;;8.50;7.20;;;;;;;16.50;87.72;101542.05;108470;1270;74199;-82
2022/08/30 07:08:49;;;;;;;8.00;7.20;;;;;;;16.54;88.13;101540.31;108572;1270;73558;-85
2022/08/30 07:11:34;;;;;;;7.90;7.10;;;;;;;16.57;87.86;101538.25;108629;1270;72719;-85
2022/08/30 07:14:02;;;;;;;8.60;7.70;;;;;;;16.57;87.57;101536.05;108533;1271;63492;-85
2022/08/30 07:16:30;;;;;;;8.00;6.70;;;;;;;16.62;87.76;101538.52;108481;1271;60326;-83
2022/08/30 07:19:03;;;;;;;7.90;6.40;;;;;;;16.68;87.84;101541.50;108490;1269;74668;-83
2022/08/30 07:21:38;;;;;;;7.60;6.50;;;;;;;16.75;87.65;101541.60;108498;1271;72996;-85
2022/08/30 07:24:08;;;;;;;8.70;5.60;;;;;;;16.80;87.53;101540.58;108504;1271;74032;-85
2022/08/30 07:26:42;;;;;;;7.20;5.60;;;;;;;16.86;87.28;101542.77;108431;1270;62273;-85
2022/08/30 07:29:09;;;;;;;5.90;5.30;;;;;;;16.95;87.06;101545.27;108593;1270;60670;-85
2022/08/30 07:31:37;;;;;;;6.30;5.30;;;;;;;17.02;86.58;101544.24;108540;1270;74904;-85
2022/08/30 07:34:07;;;;;;;6.90;5.20;;;;;;;17.14;86.60;101543.73;108604;1270;71222;-85
2022/08/30 07:36:36;;;;;;;5.20;4.40;;;;;;;17.24;85.59;101544.45;108606;1270;73827;-85
2022/08/30 07:39:04;;;;;;;6.10;4.50;;;;;;;17.28;84.84;101548.69;108484;1271;61030;-85
2022/08/30 07:41:34;;;;;;;5.40;4.80;;;;;;;17.32;84.88;101547.48;108558;1271;61686;-84
2022/08/30 07:44:02;;;;;;;6.30;4.40;;;;;;;17.40;84.77;101550.42;108498;1271;74526;-85
2022/08/30 07:46:29;;;;;;;4.40;3.60;;;;;;;17.49;84.53;101547.46;108583;1270;71209;-85
2022/08/30 07:48:58;;;;;;;5.00;3.90;;;;;;;17.57;83.86;101548.56;108543;1269;74121;-85
2022/08/30 07:51:27;;;;;;;5.10;4.00;;;;;;;17.65;83.66;101551.48;108453;1270;63611;-85
2022/08/30 07:53:55;;;;;;;5.40;4.40;;;;;;;17.69;82.99;101549.96;108592;1270;61557;-85
2022/08/30 07:56:23;;;;;;;5.30;4.00;;;;;;;17.71;82.79;101555.64;108444;1270;73933;-84
2022/08/30 07:58:52;;;;;;;5.70;4.50;;;;;;;17.75;82.63;101558.70;108609;1270;72394;-84
2022/08/30 08:01:21;;;;;;;5.10;4.00;;;;;;;17.80;82.26;101558.48;108479;1271;74189;-85
2022/08/30 08:03:49;;;;;;;5.30;4.20;;;;;;;17.86;82.07;101560.88;108467;1271;61970;-85
2022/08/30 08:06:20;;;;;;;4.70;4.00;;;;;;;17.92;81.61;101564.48;108441;1270;60822;-85
2022/08/30 08:08:49;;;;;;;4.60;3.80;;;;;;;17.99;81.59;101566.52;108529;1271;74982;-84
2022/08/30 08:11:18;;;;;;;5.50;4.10;;;;;;;18.06;81.22;101565.59;108563;1270;71469;-85
2022/08/30 08:13:46;;;;;;;4.90;4.00;;;;;;;18.07;80.54;101571.16;108470;1271;74250;-83
2022/08/30 08:16:22;;;;;;;5.20;4.10;;;;;;;18.09;80.83;101571.45;108544;1270;62254;-83
2022/08/30 08:18:49;;;;;;;5.00;4.00;;;;;;;18.13;80.56;101578.21;108501;1270;60519;-83
2022/08/30 08:21:16;;;;;;;5.20;4.50;;;;;;;18.17;80.61;101577.55;108558;1270;76415;-83
2022/08/30 08:23:43;;;;;;;5.20;4.70;;;;;;;18.16;80.03;101578.01;108561;1270;72062;-83
2022/08/30 08:26:10;;;;;;;5.00;4.40;;;;;;;18.15;80.17;101581.92;108426;1270;72705;-83
2022/08/30 08:28:39;;;;;;;6.00;4.50;;;;;;;18.19;80.21;101580.94;108593;1270;63589;-83
2022/08/30 08:34:05;;;;;;;5.50;3.90;;;;;;;18.27;79.50;101580.02;108646;1258;73416;-83
2022/08/30 08:36:33;;;;;;;5.60;4.70;;;;;;;18.27;78.90;101583.30;108583;1270;72788;-83
2022/08/30 08:39:01;;;;;;;6.10;4.60;;;;;;;18.28;79.12;101582.33;108541;1268;72835;-84
2022/08/30 08:42:04;;;;;;;6.20;4.70;;;;;;;18.27;78.95;101583.14;108505;1271;63494;-84
2022/08/30 08:44:37;;;;;;;5.20;4.60;;;;;;;18.29;79.09;101582.58;108649;1268;60502;-84
2022/08/30 08:47:23;;;;;;;5.30;4.40;;;;;;;18.31;79.16;101582.50;108609;1268;75008;-83
2022/08/30 08:49:54;;;;;;;7.10;4.70;;;;;;;18.32;78.84;101581.52;108681;1267;72765;-84
2022/08/30 08:56:13;;;;;;;4.50;3.70;;;;;;;18.47;77.96;101579.13;108631;1268;64875;-83
2022/08/30 08:58:50;;;;;;;5.40;4.20;;;;;;;18.54;77.57;101578.92;108698;1268;60611;-85
2022/08/30 09:01:20;;;;;;;5.60;4.50;;;;;;;18.58;77.31;101577.34;108627;1269;76138;-82
2022/08/30 09:03:48;;;;;;;5.40;4.90;;;;;;;18.62;77.28;101581.61;108693;1267;72104;-82
2022/08/30 09:06:24;;;;;;;6.40;4.60;;;;;;;18.64;77.06;101581.52;108564;1268;74013;-83
2022/08/30 09:08:51;;;;;;;6.70;4.40;;;;;;;18.60;76.73;101584.37;108677;1268;62018;-83
2022/08/30 09:11:27;;;;;;;5.80;4.90;;;;;;;18.59;76.92;101584.00;108624;1268;59475;-83
2022/08/30 09:13:54;;;;;;;5.70;4.70;;;;;;;18.55;76.94;101582.39;108569;1268;75059;-82
2022/08/30 09:16:56;;;;;;;7.10;5.90;;;;;;;18.52;77.50;101582.02;108540;1268;72352;-83
2022/08/30 09:19:27;;;;;;;5.80;5.20;;;;;;;18.51;77.36;101583.22;108650;1268;74051;-84
2022/08/30 09:22:24;;;;;;;6.90;5.90;;;;;;;18.53;77.70;101582.48;108630;1268;61431;-83
2022/08/30 09:25:05;;;;;;;7.00;5.90;;;;;;;18.50;77.38;101588.73;108596;1268;59830;-84
2022/08/30 09:27:37;;;;;;;7.10;5.50;;;;;;;18.50;77.50;101593.02;108627;1268;76452;-83
2022/08/30 09:30:14;;;;;;;6.50;5.50;;;;;;;18.54;77.26;101596.07;108642;1268;72118;-84
2022/08/30 09:32:52;;;;;;;6.20;5.50;;;;;;;18.56;76.70;101597.15;108517;1270;73949;-84
2022/08/30 09:35:23;;;;;;;5.70;5.10;;;;;;;18.55;76.68;101597.20;108707;1269;62306;-84
2022/08/30 09:37:56;;;;;;;5.90;4.90;;;;;;;18.57;76.64;101590.66;108670;1269;59090;-84
2022/08/30 09:40:38;;;;;;;6.60;5.70;;;;;;;18.60;76.19;101590.29;108676;1269;74981;-84
2022/08/30 09:43:21;;;;;;;6.20;5.40;;;;;;;18.58;76.58;101589.30;108624;1270;71343;-84
2022/08/30 09:46:00;;;;;;;5.10;4.60;;;;;;;18.63;76.44;101589.88;108681;1269;72666;-84
2022/08/30 09:48:39;;;;;;;5.90;5.30;;;;;;;18.72;75.84;101593.48;108636;1268;63238;-84
2022/08/30 09:51:21;;;;;;;5.80;5.10;;;;;;;18.82;75.32;101590.86;108686;1270;61998;-84
2022/08/30 09:54:13;;;;;;;5.60;4.50;;;;;;;18.87;74.72;101583.48;108649;1270;74715;-84
2022/08/30 09:56:56;;;;;;;6.40;4.40;;;;;;;18.87;74.55;101587.80;108645;1268;72229;-83
2022/08/30 09:59:58;;;;;;;9.20;6.00;;;;;;;18.94;74.78;101582.45;108785;1268;73164;-83
2022/08/30 10:02:56;;;;;;;5.40;4.80;;;;;;;19.05;73.94;101576.94;108569;1269;64078;-83
2022/08/30 10:05:22;;;;;;;4.80;4.20;;;;;;;19.11;73.61;101574.89;108573;1270;61765;-84
2022/08/30 10:08:28;;;;;;;4.40;4.00;;;;;;;19.21;73.47;101575.62;108657;1269;75773;-83
2022/08/30 10:11:07;;;;;;;5.60;4.70;;;;;;;19.33;73.12;101574.14;108679;1268;73840;-84
2022/08/30 10:13:48;;;;;;;5.00;4.50;;;;;;;19.54;72.83;101571.58;108617;1270;72780;-83
2022/08/30 10:16:58;;;;;;;4.60;4.10;;;;;;;19.88;72.17;101568.22;108621;1269;61219;-83
2022/08/30 10:19:46;;;;;;;4.30;3.90;;;;;;;20.25;70.61;101563.80;108760;1268;59729;-83
2022/08/30 10:22:25;;;;;;;4.40;4.00;;;;;;;20.43;69.71;101559.83;108782;1270;75168;-84
2022/08/30 10:25:42;;;;;;;5.00;4.50;;;;;;;20.58;68.44;101559.19;108772;1269;71290;-84
2022/08/30 10:28:18;;;;;;;5.10;3.80;;;;;;;20.67;67.85;101557.34;108412;1270;72952;-83
2022/08/30 10:30:54;;;;;;;4.00;3.40;;;;;;;20.78;67.04;101558.55;108684;1268;63374;-83
2022/08/30 10:33:30;;;;;;;4.60;3.60;;;;;;;20.85;66.56;101555.30;108734;1268;60315;-83
2022/08/30 10:36:00;;;;;;;3.50;2.80;;;;;;;20.98;66.80;101559.36;108725;1268;76741;-83
2022/08/30 10:38:36;;;;;;;3.60;2.90;;;;;;;21.11;66.10;101557.98;108630;1270;72203;-82
2022/08/30 10:41:26;;;;;;;3.00;2.70;;;;;;;21.27;64.66;101558.23;108570;1269;74174;-82
2022/08/30 10:44:16;;;;;;;3.10;2.80;;;;;;;21.40;64.66;101555.84;108692;1269;61898;-83
2022/08/30 10:47:01;;;;;;;3.70;3.00;;;;;;;21.66;64.75;101556.95;108697;1268;60659;-82
2022/08/30 10:49:33;;;;;;;3.20;2.70;;;;;;;22.01;63.87;101553.19;108736;1269;75884;-82
2022/08/30 10:52:26;;;;;;;4.30;2.30;;;;;;;22.17;63.15;101549.65;108666;1270;71353;-82
2022/08/30 10:54:59;;;;;;;3.60;2.40;;;;;;;22.22;60.83;101549.51;108614;1270;73011;-82
2022/08/30 10:57:26;;;;;;;5.30;3.20;;;;;;;22.19;61.12;101542.08;108717;1270;63311;-82
2022/08/30 11:00:04;;;;;;;2.40;2.10;;;;;;;22.33;61.45;101537.38;108707;1268;61311;-82
2022/08/30 11:03:09;;;;;;;2.20;1.60;;;;;;;22.50;61.25;101531.94;108703;1270;76302;-82
2022/08/30 11:06:15;;;;;;;2.50;1.80;;;;;;;22.79;61.21;101530.77;108651;1270;71215;-82
2022/08/30 11:09:05;;;;;;;2.80;2.10;;;;;;;23.10;60.04;101525.59;108673;1268;71962;-82
2022/08/30 11:11:53;;;;;;;2.80;2.20;;;;;;;23.20;57.84;101526.77;108685;1270;61707;-82
2022/08/30 11:14:21;;;;;;;2.60;2.20;;;;;;;23.41;57.53;101527.14;108698;1268;60591;-81
2022/08/30 11:16:54;;;;;;;2.60;2.20;;;;;;;23.44;56.60;101522.48;108624;1270;75021;-82
2022/08/30 11:19:39;;;;;;;2.50;2.00;;;;;;;23.51;57.00;101521.53;108637;1268;71274;-82
2022/08/30 11:22:20;;;;;;;2.90;1.90;;;;;;;23.75;56.54;101521.50;108659;1270;73036;-82
2022/08/30 11:25:10;;;;;;;2.10;1.70;;;;;;;23.84;54.79;101517.40;108588;1270;59443;-82
2022/08/30 11:27:51;;;;;;;3.90;1.40;;;;;;;23.88;55.41;101516.72;108606;1270;60950;-82
2022/08/30 11:30:37;;;;;;;1.90;1.30;;;;;;;23.94;53.92;101515.15;108653;1268;74833;-82
2022/08/30 11:33:11;;;;;;;2.20;1.20;;;;;;;24.12;53.48;101512.41;108501;1268;70624;-82
2022/08/30 11:35:43;;;;;;;2.50;1.20;;;;;;;24.28;53.65;101513.43;108668;1270;74255;-82
2022/08/30 11:38:27;;;;;;;4.70;1.30;;;;;;;24.47;53.27;101506.96;108526;1270;59487;-82
2022/08/30 11:40:53;;;;;;;2.00;1.30;;;;;;;24.56;52.64;101503.60;108736;1269;61427;-82
2022/08/30 11:43:38;;;;;;;1.90;1.10;;;;;;;24.65;52.32;101505.25;108783;1269;74893;-82
2022/08/30 11:46:19;;;;;;;2.20;1.00;;;;;;;24.72;51.29;101499.91;108652;1269;71347;-82
2022/08/30 11:48:59;;;;;;;1.90;1.00;;;;;;;24.81;51.34;101501.02;108680;1270;72808;-82
2022/08/30 11:51:43;;;;;;;2.30;1.30;;;;;;;24.99;51.65;101493.00;108587;1269;61766;-81